createdAt,value
2023-02-17T00:02:15.720Z,53.20
2023-02-17T00:04:42.439Z,51.40
2023-02-17T00:07:09.242Z,49.13
2023-02-17T00:09:37.406Z,52.65
2023-02-17T00:12:04.330Z,60.20
2023-02-17T00:14:30.965Z,68.53
2023-02-17T00:16:57.617Z,60.72
2023-02-17T00:19:25.299Z,54.55
2023-02-17T00:21:55.582Z,58.20
2023-02-17T00:24:24.204Z,58.40
2023-02-17T00:26:51.227Z,57.72
2023-02-17T00:29:20.261Z,53.80
2023-02-17T00:31:47.112Z,57.80
2023-02-17T00:34:15.551Z,52.30
2023-02-17T00:36:42.236Z,56.42
2023-02-17T00:39:08.948Z,49.92
2023-02-17T00:41:35.622Z,56.78
2023-02-17T00:44:02.386Z,67.07
2023-02-17T00:46:29.711Z,56.38
2023-02-17T00:48:56.945Z,54.78
2023-02-17T00:51:25.296Z,53.92
2023-02-17T00:53:52.226Z,58.30
2023-02-17T00:56:19.116Z,58.15
2023-02-17T00:58:46.613Z,56.40
2023-02-17T01:01:13.317Z,55.45
2023-02-17T01:03:42.231Z,60.60
2023-02-17T01:06:11.881Z,53.72
2023-02-17T01:08:38.505Z,56.20
2023-02-17T01:11:05.336Z,56.05
2023-02-17T01:13:32.115Z,52.63
2023-02-17T01:15:58.862Z,62.33
2023-02-17T01:18:25.743Z,56.95
2023-02-17T01:20:52.921Z,56.63
2023-02-17T01:23:19.852Z,47.53
2023-02-17T01:25:50.845Z,59.15
2023-02-17T01:28:21.384Z,47.63
2023-02-17T01:30:49.695Z,51.92
2023-02-17T01:33:16.682Z,51.10
2023-02-17T01:35:43.728Z,43.03
2023-02-17T01:38:10.397Z,45.80
2023-02-17T01:40:37.167Z,46.08
2023-02-17T01:43:04.375Z,45.00
2023-02-17T01:45:46.180Z,50.13
2023-02-17T01:48:17.014Z,46.55
2023-02-17T01:50:52.990Z,43.25
2023-02-17T01:53:25.769Z,49.35
2023-02-17T01:55:53.644Z,41.22
2023-02-17T01:58:23.233Z,43.50
2023-02-17T02:00:53.421Z,46.10
2023-02-17T02:03:20.680Z,38.72
2023-02-17T02:05:47.368Z,44.72
2023-02-17T02:08:15.983Z,43.15
2023-02-17T02:10:42.560Z,40.83
2023-02-17T02:13:09.786Z,43.75
2023-02-17T02:15:51.914Z,37.63
2023-02-17T02:18:35.722Z,36.50
2023-02-17T02:21:39.501Z,36.10
2023-02-17T02:24:19.400Z,37.78
2023-02-17T02:27:15.717Z,37.63
2023-02-17T02:30:19.662Z,33.63
2023-02-17T02:32:57.250Z,30.92
2023-02-17T02:35:42.436Z,32.30
2023-02-17T02:38:20.319Z,27.42
2023-02-17T02:40:52.365Z,36.70
2023-02-17T02:43:19.551Z,35.13
2023-02-17T02:45:46.371Z,33.22
2023-02-17T02:48:13.180Z,31.30
2023-02-17T02:51:12.774Z,32.35
2023-02-17T02:53:56.584Z,29.67
2023-02-17T02:56:38.465Z,31.20
2023-02-17T02:59:38.436Z,28.48
2023-02-17T03:02:30.584Z,32.42
2023-02-17T03:05:15.303Z,28.25
2023-02-17T03:07:45.683Z,23.55
2023-02-17T03:10:14.652Z,24.00
2023-02-17T03:12:41.462Z,30.80
2023-02-17T03:15:19.493Z,26.15
2023-02-17T03:17:46.115Z,21.65
2023-02-17T03:20:14.678Z,24.13
2023-02-17T03:22:46.153Z,25.15
2023-02-17T03:25:13.175Z,27.05
2023-02-17T03:27:39.940Z,29.48
2023-02-17T03:30:07.569Z,24.98
2023-02-17T03:32:34.662Z,23.60
2023-02-17T03:35:01.336Z,20.85
2023-02-17T03:37:27.998Z,24.65
2023-02-17T03:39:54.647Z,23.52
2023-02-17T03:42:21.338Z,21.65
2023-02-17T03:44:47.946Z,22.25
2023-02-17T03:47:14.590Z,25.83
2023-02-17T03:49:41.186Z,19.95
2023-02-17T03:52:08.011Z,23.23
2023-02-17T03:54:34.664Z,25.42
2023-02-17T03:57:01.331Z,30.73
2023-02-17T03:59:28.463Z,19.95
2023-02-17T04:01:55.053Z,27.45
2023-02-17T04:04:21.764Z,28.70
2023-02-17T04:06:48.690Z,24.63
2023-02-17T04:09:15.408Z,26.73
2023-02-17T04:11:43.353Z,20.70
2023-02-17T04:14:09.989Z,25.35
2023-02-17T04:16:39.355Z,22.15
2023-02-17T04:19:10.605Z,21.42
2023-02-17T04:21:37.260Z,21.05
2023-02-17T04:24:04.230Z,23.52
2023-02-17T04:26:31.678Z,17.85
2023-02-17T04:28:58.875Z,19.05
2023-02-17T04:31:28.121Z,19.65
2023-02-17T04:33:55.097Z,20.35
2023-02-17T04:36:22.057Z,23.88
2023-02-17T04:38:48.731Z,24.02
2023-02-17T04:41:15.325Z,21.77
2023-02-17T04:43:42.016Z,21.25
2023-02-17T04:46:09.337Z,20.77
2023-02-17T04:48:36.141Z,23.08
2023-02-17T04:51:02.859Z,20.02
2023-02-17T04:53:29.489Z,18.88
2023-02-17T04:55:56.161Z,26.10
2023-02-17T04:58:22.977Z,27.63
2023-02-17T05:00:51.058Z,25.52
2023-02-17T05:03:20.633Z,24.02
2023-02-17T05:05:48.587Z,22.88
2023-02-17T05:08:15.277Z,24.33
2023-02-17T05:10:43.581Z,21.38
2023-02-17T05:13:10.612Z,21.13
2023-02-17T05:15:37.478Z,30.75
2023-02-17T05:18:04.264Z,27.02
2023-02-17T05:20:31.434Z,22.30
2023-02-17T05:22:58.067Z,26.33
2023-02-17T05:25:24.755Z,27.75
2023-02-17T05:27:51.428Z,28.52
2023-02-17T05:30:18.342Z,22.92
2023-02-17T05:32:45.158Z,24.30
2023-02-17T05:35:12.018Z,24.38
2023-02-17T05:37:38.666Z,24.85
2023-02-17T05:40:06.486Z,24.65
2023-02-17T05:42:33.180Z,24.85
2023-02-17T05:44:59.758Z,24.63
2023-02-17T05:47:27.846Z,22.65
2023-02-17T05:49:54.628Z,27.90
2023-02-17T05:52:21.295Z,20.45
2023-02-17T05:54:47.918Z,23.88
2023-02-17T05:57:15.627Z,23.50
2023-02-17T05:59:42.414Z,26.30
2023-02-17T06:02:09.008Z,25.85
2023-02-17T06:04:35.916Z,24.60
2023-02-17T06:07:03.937Z,22.58
2023-02-17T06:09:30.647Z,26.60
2023-02-17T06:11:57.327Z,26.50
2023-02-17T06:14:24.205Z,24.65
2023-02-17T06:16:50.909Z,30.23
2023-02-17T06:19:17.558Z,24.23
2023-02-17T06:21:44.321Z,25.13
2023-02-17T06:24:11.217Z,24.17
2023-02-17T06:26:37.851Z,24.80
2023-02-17T06:29:05.548Z,28.05
2023-02-17T06:31:32.344Z,31.35
2023-02-17T06:33:59.211Z,25.38
2023-02-17T06:36:25.887Z,29.95
2023-02-17T06:38:52.450Z,24.67
2023-02-17T06:41:19.012Z,31.25
2023-02-17T06:43:45.638Z,27.65
2023-02-17T06:46:12.600Z,29.70
2023-02-17T06:48:39.279Z,27.35
2023-02-17T06:51:08.711Z,24.77
2023-02-17T06:53:35.412Z,31.95
2023-02-17T06:56:02.082Z,35.80
2023-02-17T06:58:28.786Z,25.33
2023-02-17T07:00:55.421Z,28.40
2023-02-17T07:03:22.068Z,31.50
2023-02-17T07:05:48.900Z,35.17
2023-02-17T07:08:15.660Z,32.35
2023-02-17T07:10:42.938Z,28.33
2023-02-17T07:13:11.022Z,31.08
2023-02-17T07:15:37.625Z,30.70
2023-02-17T07:18:04.634Z,32.67
2023-02-17T07:20:32.288Z,34.38
2023-02-17T07:23:01.878Z,33.78
2023-02-17T07:25:28.900Z,30.83
2023-02-17T07:27:55.951Z,27.23
2023-02-17T07:30:22.648Z,27.00
2023-02-17T07:32:49.319Z,30.27
2023-02-17T07:35:17.637Z,33.15
2023-02-17T07:37:44.450Z,29.88
2023-02-17T07:40:11.571Z,29.45
2023-02-17T07:42:38.368Z,32.95
2023-02-17T07:45:05.808Z,36.97
2023-02-17T07:47:33.210Z,37.53
2023-02-17T07:50:00.065Z,32.30
2023-02-17T07:52:26.785Z,30.35
2023-02-17T07:54:54.882Z,28.13
2023-02-17T07:57:21.545Z,31.40
2023-02-17T07:59:48.238Z,33.25
2023-02-17T08:02:15.352Z,29.85
2023-02-17T08:04:42.455Z,28.92
2023-02-17T08:07:09.239Z,30.35
2023-02-17T08:09:54.828Z,30.92
2023-02-17T08:12:42.070Z,30.17
2023-02-17T08:15:12.752Z,34.55
2023-02-17T08:17:42.954Z,24.73
2023-02-17T08:20:09.978Z,25.70
2023-02-17T08:22:37.152Z,24.25
2023-02-17T08:25:06.218Z,23.92
2023-02-17T08:27:33.405Z,23.33
2023-02-17T08:30:00.720Z,24.88
2023-02-17T08:32:28.687Z,22.85
2023-02-17T08:34:56.943Z,19.83
2023-02-17T08:37:23.843Z,19.85
2023-02-17T08:39:50.553Z,17.25
2023-02-17T08:42:17.975Z,23.58
2023-02-17T08:44:44.741Z,23.23
2023-02-17T08:47:11.548Z,15.85
2023-02-17T08:49:38.353Z,19.65
2023-02-17T08:52:05.402Z,20.08
2023-02-17T08:54:32.379Z,22.80
2023-02-17T08:56:59.231Z,17.77
2023-02-17T08:59:26.133Z,20.52
2023-02-17T09:01:52.869Z,18.58
2023-02-17T09:04:19.731Z,16.85
2023-02-17T09:06:49.197Z,18.58
2023-02-17T09:09:19.254Z,18.77
2023-02-17T09:11:46.378Z,13.77
2023-02-17T09:14:13.317Z,16.45
2023-02-17T09:16:41.722Z,19.85
2023-02-17T09:19:08.675Z,15.80
2023-02-17T09:21:35.678Z,16.88
2023-02-17T09:24:02.406Z,16.50
2023-02-17T09:26:29.290Z,14.13
2023-02-17T09:28:57.758Z,14.52
2023-02-17T09:31:26.689Z,17.65
2023-02-17T09:33:55.466Z,14.02
2023-02-17T09:36:27.637Z,14.90
2023-02-17T09:38:54.648Z,14.20
2023-02-17T09:41:40.775Z,12.48
2023-02-17T09:44:17.203Z,16.08
2023-02-17T09:47:01.818Z,14.95
2023-02-17T09:49:37.375Z,13.23
2023-02-17T09:52:19.064Z,12.63
2023-02-17T09:55:10.191Z,10.73
2023-02-17T09:57:56.378Z,21.33
2023-02-17T10:00:35.383Z,14.00
2023-02-17T10:03:14.078Z,15.45
2023-02-17T10:06:05.676Z,14.35
2023-02-17T10:08:42.298Z,18.02
2023-02-17T10:11:19.768Z,16.52
2023-02-17T10:13:46.857Z,20.08
2023-02-17T10:16:21.973Z,25.27
2023-02-17T10:19:14.540Z,18.30
2023-02-17T10:21:47.164Z,21.17
2023-02-17T10:24:14.011Z,21.33
2023-02-17T10:26:48.959Z,15.73
2023-02-17T10:29:37.157Z,16.80
2023-02-17T10:32:13.881Z,19.63
2023-02-17T10:34:58.299Z,17.27
2023-02-17T10:37:40.964Z,19.52
2023-02-17T10:40:25.503Z,25.17
2023-02-17T10:42:56.712Z,16.00
2023-02-17T10:45:35.478Z,17.70
2023-02-17T10:48:09.140Z,22.48
2023-02-17T10:50:38.200Z,22.85
2023-02-17T10:53:21.329Z,20.98
2023-02-17T10:55:53.709Z,21.50
2023-02-17T10:58:29.134Z,17.60
2023-02-17T11:00:57.945Z,17.92
2023-02-17T11:03:29.585Z,21.40
2023-02-17T11:06:20.265Z,22.50
2023-02-17T11:08:54.034Z,16.85
2023-02-17T11:11:26.858Z,18.00
2023-02-17T11:14:18.826Z,11.95
2023-02-17T11:17:07.657Z,14.20
2023-02-17T11:19:35.683Z,14.38
2023-02-17T11:22:05.389Z,19.58
2023-02-17T11:24:34.504Z,18.00
2023-02-17T11:27:09.296Z,17.55
2023-02-17T11:29:35.962Z,15.90
2023-02-17T11:32:07.374Z,18.92
2023-02-17T11:34:36.831Z,21.77
2023-02-17T11:37:09.335Z,17.50
2023-02-17T11:39:41.262Z,24.45
2023-02-17T11:42:28.587Z,21.90
2023-02-17T11:44:57.943Z,26.70
2023-02-17T11:47:42.628Z,22.33
2023-02-17T11:50:41.404Z,20.35
2023-02-17T11:53:42.381Z,20.48
2023-02-17T11:56:20.800Z,19.08
2023-02-17T12:02:19.382Z,26.05
2023-02-17T12:04:52.922Z,25.15
2023-02-17T12:07:42.791Z,21.73
2023-02-17T12:10:19.899Z,22.10
2023-02-17T12:13:13.031Z,17.52
2023-02-17T12:15:45.112Z,21.88
2023-02-17T12:18:42.206Z,19.55
2023-02-17T12:21:17.889Z,20.13
2023-02-17T12:24:18.157Z,16.10
2023-02-17T12:26:57.022Z,21.60
2023-02-17T12:29:42.939Z,13.60
2023-02-17T12:32:18.635Z,15.25
2023-02-17T12:34:56.907Z,15.32
2023-02-17T12:37:31.949Z,21.15
2023-02-17T12:40:16.224Z,17.23
2023-02-17T12:42:52.620Z,17.92
2023-02-17T12:45:25.058Z,16.85
2023-02-17T12:48:01.532Z,16.50
2023-02-17T12:50:57.112Z,14.35
2023-02-17T12:53:40.357Z,8.93
2023-02-17T12:56:30.434Z,13.38
2023-02-17T12:59:12.818Z,11.95
2023-02-17T13:01:48.897Z,15.02
2023-02-17T13:04:19.559Z,17.35
2023-02-17T13:06:53.345Z,14.95
2023-02-17T13:09:36.013Z,12.68
2023-02-17T13:12:24.738Z,11.98
2023-02-17T13:15:00.220Z,11.82
2023-02-17T13:17:39.137Z,6.57
2023-02-17T13:20:12.813Z,14.88
2023-02-17T13:22:41.691Z,13.82
2023-02-17T13:25:31.290Z,15.63
2023-02-17T13:27:59.991Z,13.25
2023-02-17T13:30:41.463Z,15.68
2023-02-17T13:33:20.442Z,8.60
2023-02-17T13:35:47.599Z,10.88
2023-02-17T13:38:25.253Z,14.90
2023-02-17T13:40:52.430Z,14.75
2023-02-17T13:43:20.494Z,17.17
2023-02-17T13:45:53.299Z,10.45
2023-02-17T13:48:27.169Z,9.85
2023-02-17T13:51:02.474Z,12.23
2023-02-17T13:53:33.214Z,9.07
2023-02-17T13:56:11.810Z,12.32
2023-02-17T13:58:42.362Z,18.40
2023-02-17T14:01:16.474Z,7.43
2023-02-17T14:03:48.582Z,12.50
2023-02-17T14:06:32.585Z,6.57
2023-02-17T14:09:00.105Z,6.03
2023-02-17T14:11:29.839Z,6.55
2023-02-17T14:13:59.209Z,13.30
2023-02-17T14:16:33.346Z,3.90
2023-02-17T14:19:12.650Z,4.65
2023-02-17T14:21:48.716Z,6.07
2023-02-17T14:24:38.569Z,6.38
2023-02-17T14:27:09.934Z,5.55
2023-02-17T14:29:50.392Z,4.57
2023-02-17T14:32:36.121Z,9.40
2023-02-17T14:35:29.240Z,5.10
2023-02-17T14:38:06.301Z,6.20
2023-02-17T14:40:32.979Z,4.13
2023-02-17T14:42:59.796Z,8.70
2023-02-17T14:45:26.486Z,9.73
2023-02-17T14:47:53.468Z,8.52
2023-02-17T14:50:20.059Z,4.85
2023-02-17T14:52:48.857Z,7.72
2023-02-17T14:55:26.649Z,6.30
2023-02-17T14:57:54.627Z,10.13
2023-02-17T15:00:21.525Z,14.15
2023-02-17T15:02:48.660Z,8.15
2023-02-17T15:05:16.342Z,11.25
2023-02-17T15:07:43.772Z,9.90
2023-02-17T15:10:25.373Z,6.03
2023-02-17T15:12:52.592Z,12.30
2023-02-17T15:15:19.520Z,14.05
2023-02-17T15:17:46.564Z,11.10
2023-02-17T15:20:14.983Z,11.70
2023-02-17T15:22:42.286Z,18.75
2023-02-17T15:25:20.459Z,16.25
2023-02-17T15:27:47.052Z,13.88
2023-02-17T15:30:16.873Z,7.45
2023-02-17T15:32:44.284Z,10.13
2023-02-17T15:35:18.202Z,9.93
2023-02-17T15:37:45.170Z,12.45
2023-02-17T15:40:17.433Z,13.90
2023-02-17T15:42:46.230Z,17.48
2023-02-17T15:45:16.847Z,17.88
2023-02-17T15:47:43.705Z,11.20
2023-02-17T15:50:20.429Z,10.07
2023-02-17T15:52:47.459Z,12.35
2023-02-17T15:55:14.360Z,7.35
2023-02-17T15:57:51.450Z,10.32
2023-02-17T16:00:31.124Z,8.75
2023-02-17T16:02:58.259Z,11.57
2023-02-17T16:05:27.544Z,16.85
2023-02-17T16:07:55.228Z,9.52
2023-02-17T16:10:27.003Z,14.43
2023-02-17T16:12:56.266Z,10.50
2023-02-17T16:15:25.085Z,12.88
2023-02-17T16:17:51.928Z,4.68
2023-02-17T16:20:22.679Z,11.50
2023-02-17T16:22:49.796Z,2.88
2023-02-17T16:25:18.372Z,9.20
2023-02-17T16:27:49.740Z,8.65
2023-02-17T16:30:23.951Z,6.15
2023-02-17T16:32:51.466Z,3.80
2023-02-17T16:35:20.947Z,8.60
2023-02-17T16:37:56.536Z,4.88
2023-02-17T16:40:26.760Z,19.33
2023-02-17T16:42:53.894Z,9.90
2023-02-17T16:45:27.031Z,7.60
2023-02-17T16:47:56.351Z,7.70
2023-02-17T16:50:34.940Z,15.45
2023-02-17T16:53:06.313Z,9.63
2023-02-17T16:55:35.030Z,12.93
2023-02-17T16:58:03.658Z,12.57
2023-02-17T17:00:32.464Z,9.13
2023-02-17T17:02:59.708Z,6.20
2023-02-17T17:05:28.786Z,12.90
2023-02-17T17:07:56.320Z,12.45
2023-02-17T17:10:26.479Z,13.93
2023-02-17T17:12:53.416Z,8.48
2023-02-17T17:15:20.637Z,7.55
2023-02-17T17:17:59.746Z,6.43
2023-02-17T17:20:31.196Z,18.30
2023-02-17T17:22:59.596Z,8.77
2023-02-17T17:25:28.213Z,15.00
2023-02-17T17:27:55.825Z,4.03
2023-02-17T17:30:26.870Z,11.00
2023-02-17T17:32:53.577Z,14.63
2023-02-17T17:35:20.489Z,17.55
2023-02-17T17:37:47.507Z,16.25
2023-02-17T17:40:24.856Z,14.82
2023-02-17T17:42:52.246Z,8.20
2023-02-17T17:45:19.460Z,10.68
2023-02-17T17:47:46.436Z,11.48
2023-02-17T17:50:19.531Z,8.10
2023-02-17T17:52:46.978Z,8.15
2023-02-17T17:55:14.079Z,9.80
2023-02-17T17:57:41.519Z,10.60
2023-02-17T18:00:14.147Z,15.85
2023-02-17T18:02:40.779Z,9.45
2023-02-17T18:05:08.298Z,10.77
2023-02-17T18:07:38.252Z,6.05
2023-02-17T18:10:07.874Z,21.65
2023-02-17T18:12:35.336Z,13.27
2023-02-17T18:15:04.403Z,21.10
2023-02-17T18:17:37.899Z,9.13
2023-02-17T18:20:06.187Z,10.15
2023-02-17T18:22:33.211Z,8.32
2023-02-17T18:25:00.040Z,11.50
2023-02-17T18:27:26.694Z,19.85
2023-02-17T18:29:56.628Z,5.55
2023-02-17T18:32:24.468Z,12.05
2023-02-17T18:34:51.129Z,7.85
2023-02-17T18:37:17.849Z,10.80
2023-02-17T18:39:44.677Z,6.63
2023-02-17T18:42:11.441Z,8.15
2023-02-17T18:44:38.021Z,5.60
2023-02-17T18:47:04.715Z,9.32
2023-02-17T18:49:31.364Z,19.15
2023-02-17T18:51:57.979Z,12.27
2023-02-17T18:54:24.635Z,6.13
2023-02-17T18:56:51.269Z,6.13
2023-02-17T18:59:19.677Z,12.90
2023-02-17T19:01:46.686Z,9.73
2023-02-17T19:04:14.926Z,11.27
2023-02-17T19:06:42.093Z,11.25
2023-02-17T19:09:08.842Z,11.43
2023-02-17T19:11:35.653Z,11.23
2023-02-17T19:14:03.105Z,9.75
2023-02-17T19:16:31.661Z,15.90
2023-02-17T19:18:59.552Z,7.00
2023-02-17T19:21:26.241Z,16.00
2023-02-17T19:23:53.200Z,10.95
2023-02-17T19:26:20.769Z,25.25
2023-02-17T19:28:47.585Z,12.65
2023-02-17T19:31:17.321Z,8.25
2023-02-17T19:33:44.968Z,4.75
2023-02-17T19:36:17.521Z,15.82
2023-02-17T19:38:44.729Z,18.73
2023-02-17T19:41:12.683Z,12.27
2023-02-17T19:43:40.314Z,6.50
2023-02-17T19:46:07.341Z,11.43
2023-02-17T19:48:34.426Z,11.70
2023-02-17T19:51:05.460Z,5.28
2023-02-17T19:53:33.167Z,7.35
2023-02-17T19:56:12.371Z,4.03
2023-02-17T19:58:43.463Z,8.98
2023-02-17T20:01:21.750Z,9.88
2023-02-17T20:03:48.635Z,12.73
2023-02-17T20:06:21.549Z,12.82
2023-02-17T20:08:53.198Z,11.13
2023-02-17T20:11:19.963Z,12.27
2023-02-17T20:13:46.929Z,14.98
2023-02-17T20:16:15.760Z,6.78
2023-02-17T20:18:48.276Z,7.28
2023-02-17T20:21:38.313Z,9.55
2023-02-17T20:26:51.044Z,12.35
2023-02-17T20:29:18.142Z,6.63
2023-02-17T20:31:45.543Z,11.35
2023-02-17T20:34:41.665Z,5.85
2023-02-17T20:37:09.575Z,9.82
2023-02-17T20:39:36.560Z,6.32
2023-02-17T20:42:04.039Z,8.55
2023-02-17T20:44:31.310Z,12.30
2023-02-17T20:46:58.200Z,6.13
2023-02-17T20:49:25.976Z,13.73
2023-02-17T20:51:52.810Z,8.60
2023-02-17T20:54:19.753Z,11.73
2023-02-17T20:56:47.639Z,10.05
2023-02-17T20:59:14.878Z,15.63
2023-02-17T21:01:42.259Z,13.23
2023-02-17T21:04:10.150Z,9.82
2023-02-17T21:06:43.062Z,8.90
2023-02-17T21:09:17.200Z,9.45
2023-02-17T21:11:44.539Z,10.43
2023-02-17T21:14:11.668Z,19.60
2023-02-17T21:16:38.807Z,7.25
2023-02-17T21:19:05.476Z,14.00
2023-02-17T21:21:32.514Z,13.95
2023-02-17T21:23:59.655Z,12.95
2023-02-17T21:26:28.031Z,6.20
2023-02-17T21:28:55.363Z,10.80
2023-02-17T21:31:22.244Z,5.97
2023-02-17T21:33:48.966Z,15.38
2023-02-17T21:36:17.555Z,12.35
2023-02-17T21:38:45.176Z,6.53
2023-02-17T21:41:14.904Z,9.85
2023-02-17T21:44:00.123Z,11.90
2023-02-17T21:46:27.465Z,18.45
2023-02-17T21:48:55.743Z,16.20
2023-02-17T21:51:22.630Z,12.70
2023-02-17T21:53:49.366Z,9.60
2023-02-17T21:56:16.636Z,6.45
2023-02-17T21:58:47.680Z,8.45
2023-02-17T22:01:14.703Z,5.65
2023-02-17T22:03:42.093Z,8.00
2023-02-17T22:06:19.493Z,5.55
2023-02-17T22:08:46.355Z,8.57
2023-02-17T22:11:15.101Z,18.48
2023-02-17T22:13:41.906Z,14.13
2023-02-17T22:16:09.625Z,10.05
2023-02-17T22:18:36.714Z,5.18
2023-02-17T22:21:07.520Z,6.25
2023-02-17T22:23:34.251Z,6.22
2023-02-17T22:26:04.603Z,14.60
2023-02-17T22:28:31.482Z,8.02
2023-02-17T22:30:58.378Z,12.30
2023-02-17T22:33:25.138Z,9.43
2023-02-17T22:36:07.086Z,9.98
2023-02-17T22:38:33.989Z,8.75
2023-02-17T22:41:04.375Z,9.35
2023-02-17T22:43:32.099Z,8.90
2023-02-17T22:45:59.834Z,11.18
2023-02-17T22:48:28.028Z,11.88
2023-02-17T22:50:54.794Z,11.38
2023-02-17T22:53:21.509Z,11.23
2023-02-17T22:55:58.438Z,14.48
2023-02-17T22:58:26.492Z,21.40
2023-02-17T23:01:03.158Z,10.95
2023-02-17T23:03:30.008Z,11.75
2023-02-17T23:06:31.312Z,9.23
2023-02-17T23:08:59.711Z,16.15
2023-02-17T23:11:49.739Z,13.63
2023-02-17T23:14:31.063Z,22.52
2023-02-17T23:17:01.002Z,6.78
2023-02-17T23:19:28.842Z,13.38
2023-02-17T23:21:58.653Z,8.40
2023-02-17T23:24:26.681Z,12.73
2023-02-17T23:26:54.552Z,4.55
2023-02-17T23:29:21.645Z,13.00
2023-02-17T23:31:48.718Z,13.98
2023-02-17T23:34:16.731Z,12.43
2023-02-17T23:36:44.699Z,4.80
2023-02-17T23:39:11.850Z,7.53
2023-02-17T23:41:39.658Z,9.93
2023-02-17T23:44:08.733Z,7.82
2023-02-17T23:46:36.185Z,9.10
2023-02-17T23:49:03.130Z,9.27
2023-02-17T23:51:30.288Z,13.55
2023-02-17T23:53:57.172Z,14.18
2023-02-17T23:56:25.797Z,5.13
2023-02-17T23:58:52.609Z,17.05
